sensor_id;sensor_type;location;lat;lon;timestamp;P1;durP1;ratioP1;P2;durP2;ratioP2
9924;SDS011;5001;51.674;7.868;2023-02-15T00:01:53;22.07;;;13.03;;
9924;SDS011;5001;51.674;7.868;2023-02-15T00:04:21;17.63;;;12.07;;
9924;SDS011;5001;51.674;7.868;2023-02-15T00:06:49;22.07;;;12.87;;
9924;SDS011;5001;51.674;7.868;2023-02-15T00:09:18;24.57;;;14.17;;
9924;SDS011;5001;51.674;7.868;2023-02-15T00:11:44;18.50;;;13.43;;
9924;SDS011;5001;51.674;7.868;2023-02-15T00:16:45;20.20;;;13.73;;
9924;SDS011;5001;51.674;7.868;2023-02-15T00:19:14;18.87;;;13.40;;
9924;SDS011;5001;51.674;7.868;2023-02-15T00:21:43;20.17;;;12.50;;
9924;SDS011;5001;51.674;7.868;2023-02-15T00:24:11;22.40;;;12.70;;
9924;SDS011;5001;51.674;7.868;2023-02-15T00:26:40;19.67;;;13.77;;
9924;SDS011;5001;51.674;7.868;2023-02-15T00:29:09;21.40;;;14.97;;
9924;SDS011;5001;51.674;7.868;2023-02-15T00:31:37;18.27;;;13.13;;
9924;SDS011;5001;51.674;7.868;2023-02-15T00:34:10;18.30;;;13.33;;
9924;SDS011;5001;51.674;7.868;2023-02-15T00:36:46;18.30;;;13.03;;
9924;SDS011;5001;51.674;7.868;2023-02-15T00:39:14;18.07;;;13.17;;
9924;SDS011;5001;51.674;7.868;2023-02-15T00:41:42;18.97;;;13.03;;
9924;SDS011;5001;51.674;7.868;2023-02-15T00:44:10;17.00;;;12.77;;
9924;SDS011;5001;51.674;7.868;2023-02-15T00:46:37;18.33;;;12.30;;
9924;SDS011;5001;51.674;7.868;2023-02-15T00:49:08;22.43;;;12.33;;
9924;SDS011;5001;51.674;7.868;2023-02-15T00:51:36;16.97;;;12.13;;
9924;SDS011;5001;51.674;7.868;2023-02-15T00:54:04;19.77;;;12.60;;
9924;SDS011;5001;51.674;7.868;2023-02-15T00:56:31;20.73;;;12.60;;
9924;SDS011;5001;51.674;7.868;2023-02-15T00:58:58;19.43;;;13.50;;
9924;SDS011;5001;51.674;7.868;2023-02-15T01:01:25;18.23;;;13.27;;
9924;SDS011;5001;51.674;7.868;2023-02-15T01:03:53;17.83;;;12.40;;
9924;SDS011;5001;51.674;7.868;2023-02-15T01:06:20;17.83;;;12.30;;
9924;SDS011;5001;51.674;7.868;2023-02-15T01:08:47;17.30;;;12.57;;
9924;SDS011;5001;51.674;7.868;2023-02-15T01:11:15;16.67;;;12.67;;
9924;SDS011;5001;51.674;7.868;2023-02-15T01:13:54;22.33;;;12.30;;
9924;SDS011;5001;51.674;7.868;2023-02-15T01:16:23;18.77;;;12.23;;
9924;SDS011;5001;51.674;7.868;2023-02-15T01:18:52;17.57;;;12.57;;
9924;SDS011;5001;51.674;7.868;2023-02-15T01:21:22;18.23;;;13.17;;
9924;SDS011;5001;51.674;7.868;2023-02-15T01:23:50;17.70;;;12.57;;
9924;SDS011;5001;51.674;7.868;2023-02-15T01:26:17;17.90;;;12.23;;
9924;SDS011;5001;51.674;7.868;2023-02-15T01:28:44;18.40;;;12.17;;
9924;SDS011;5001;51.674;7.868;2023-02-15T01:31:12;17.27;;;12.03;;
9924;SDS011;5001;51.674;7.868;2023-02-15T01:33:43;18.10;;;13.00;;
9924;SDS011;5001;51.674;7.868;2023-02-15T01:36:11;19.00;;;13.37;;
9924;SDS011;5001;51.674;7.868;2023-02-15T01:38:38;19.73;;;13.97;;
9924;SDS011;5001;51.674;7.868;2023-02-15T01:41:08;17.90;;;12.77;;
9924;SDS011;5001;51.674;7.868;2023-02-15T01:43:59;17.57;;;13.67;;
9924;SDS011;5001;51.674;7.868;2023-02-15T01:46:47;19.13;;;13.60;;
9924;SDS011;5001;51.674;7.868;2023-02-15T01:49:19;18.70;;;13.70;;
9924;SDS011;5001;51.674;7.868;2023-02-15T01:51:50;20.30;;;13.60;;
9924;SDS011;5001;51.674;7.868;2023-02-15T01:54:23;25.03;;;15.40;;
9924;SDS011;5001;51.674;7.868;2023-02-15T01:56:58;21.10;;;14.60;;
9924;SDS011;5001;51.674;7.868;2023-02-15T01:59:29;18.37;;;13.80;;
9924;SDS011;5001;51.674;7.868;2023-02-15T02:01:59;20.83;;;14.23;;
9924;SDS011;5001;51.674;7.868;2023-02-15T02:04:29;22.70;;;14.30;;
9924;SDS011;5001;51.674;7.868;2023-02-15T02:07:01;21.13;;;13.53;;
9924;SDS011;5001;51.674;7.868;2023-02-15T02:09:30;20.83;;;13.57;;
9924;SDS011;5001;51.674;7.868;2023-02-15T02:11:58;18.43;;;13.10;;
9924;SDS011;5001;51.674;7.868;2023-02-15T02:14:26;20.17;;;13.57;;
9924;SDS011;5001;51.674;7.868;2023-02-15T02:19:50;17.73;;;12.27;;
9924;SDS011;5001;51.674;7.868;2023-02-15T02:28:23;21.73;;;14.27;;
9924;SDS011;5001;51.674;7.868;2023-02-15T02:34:22;22.70;;;15.03;;
9924;SDS011;5001;51.674;7.868;2023-02-15T02:36:57;20.10;;;13.83;;
9924;SDS011;5001;51.674;7.868;2023-02-15T02:45:20;19.50;;;12.60;;
9924;SDS011;5001;51.674;7.868;2023-02-15T02:47:53;20.87;;;13.40;;
9924;SDS011;5001;51.674;7.868;2023-02-15T02:50:26;19.40;;;13.13;;
9924;SDS011;5001;51.674;7.868;2023-02-15T02:52:56;18.77;;;13.43;;
9924;SDS011;5001;51.674;7.868;2023-02-15T02:55:29;21.00;;;14.23;;
9924;SDS011;5001;51.674;7.868;2023-02-15T02:58:03;19.53;;;13.17;;
9924;SDS011;5001;51.674;7.868;2023-02-15T03:00:39;17.23;;;13.33;;
9924;SDS011;5001;51.674;7.868;2023-02-15T03:03:36;21.90;;;14.17;;
9924;SDS011;5001;51.674;7.868;2023-02-15T03:06:15;21.17;;;14.13;;
9924;SDS011;5001;51.674;7.868;2023-02-15T03:08:47;21.67;;;14.87;;
9924;SDS011;5001;51.674;7.868;2023-02-15T03:11:17;25.77;;;14.67;;
9924;SDS011;5001;51.674;7.868;2023-02-15T03:13:44;19.20;;;13.50;;
9924;SDS011;5001;51.674;7.868;2023-02-15T03:16:15;22.47;;;13.50;;
9924;SDS011;5001;51.674;7.868;2023-02-15T03:21:30;23.30;;;13.70;;
9924;SDS011;5001;51.674;7.868;2023-02-15T03:24:07;20.20;;;14.17;;
9924;SDS011;5001;51.674;7.868;2023-02-15T03:26:42;18.03;;;13.50;;
9924;SDS011;5001;51.674;7.868;2023-02-15T03:29:12;21.47;;;14.40;;
9924;SDS011;5001;51.674;7.868;2023-02-15T03:31:40;19.80;;;13.60;;
9924;SDS011;5001;51.674;7.868;2023-02-15T03:34:12;20.00;;;14.03;;
9924;SDS011;5001;51.674;7.868;2023-02-15T03:39:34;21.70;;;14.17;;
9924;SDS011;5001;51.674;7.868;2023-02-15T03:45:04;21.90;;;14.67;;
9924;SDS011;5001;51.674;7.868;2023-02-15T03:47:38;23.57;;;15.73;;
9924;SDS011;5001;51.674;7.868;2023-02-15T03:50:17;20.60;;;14.73;;
9924;SDS011;5001;51.674;7.868;2023-02-15T03:53:06;22.73;;;15.53;;
9924;SDS011;5001;51.674;7.868;2023-02-15T03:55:36;23.33;;;14.97;;
9924;SDS011;5001;51.674;7.868;2023-02-15T03:58:03;20.53;;;14.63;;
9924;SDS011;5001;51.674;7.868;2023-02-15T04:00:57;23.47;;;16.00;;
9924;SDS011;5001;51.674;7.868;2023-02-15T04:03:58;23.87;;;15.03;;
9924;SDS011;5001;51.674;7.868;2023-02-15T04:06:29;25.03;;;16.47;;
9924;SDS011;5001;51.674;7.868;2023-02-15T04:08:56;24.03;;;15.43;;
9924;SDS011;5001;51.674;7.868;2023-02-15T04:11:41;23.90;;;14.23;;
9924;SDS011;5001;51.674;7.868;2023-02-15T04:14:08;24.80;;;14.53;;
9924;SDS011;5001;51.674;7.868;2023-02-15T04:16:54;22.57;;;15.00;;
9924;SDS011;5001;51.674;7.868;2023-02-15T04:19:21;23.27;;;15.10;;
9924;SDS011;5001;51.674;7.868;2023-02-15T04:22:06;20.77;;;14.93;;
9924;SDS011;5001;51.674;7.868;2023-02-15T04:24:52;24.40;;;15.43;;
9924;SDS011;5001;51.674;7.868;2023-02-15T04:27:37;22.10;;;15.13;;
9924;SDS011;5001;51.674;7.868;2023-02-15T04:30:05;19.43;;;14.43;;
9924;SDS011;5001;51.674;7.868;2023-02-15T04:32:33;22.53;;;15.50;;
9924;SDS011;5001;51.674;7.868;2023-02-15T04:35:01;22.30;;;15.30;;
9924;SDS011;5001;51.674;7.868;2023-02-15T04:37:28;21.07;;;15.00;;
9924;SDS011;5001;51.674;7.868;2023-02-15T04:39:55;21.43;;;14.90;;
9924;SDS011;5001;51.674;7.868;2023-02-15T04:42:25;20.67;;;14.67;;
9924;SDS011;5001;51.674;7.868;2023-02-15T04:44:52;21.90;;;14.63;;
9924;SDS011;5001;51.674;7.868;2023-02-15T04:47:19;21.20;;;14.87;;
9924;SDS011;5001;51.674;7.868;2023-02-15T04:49:46;20.63;;;14.87;;
9924;SDS011;5001;51.674;7.868;2023-02-15T04:52:13;20.27;;;14.10;;
9924;SDS011;5001;51.674;7.868;2023-02-15T04:54:41;20.17;;;14.67;;
9924;SDS011;5001;51.674;7.868;2023-02-15T04:57:08;19.37;;;14.17;;
9924;SDS011;5001;51.674;7.868;2023-02-15T04:59:35;22.27;;;14.87;;
9924;SDS011;5001;51.674;7.868;2023-02-15T05:02:02;23.37;;;15.40;;
9924;SDS011;5001;51.674;7.868;2023-02-15T05:04:29;19.90;;;14.37;;
9924;SDS011;5001;51.674;7.868;2023-02-15T05:06:56;22.40;;;14.97;;
9924;SDS011;5001;51.674;7.868;2023-02-15T05:09:24;24.67;;;14.40;;
9924;SDS011;5001;51.674;7.868;2023-02-15T05:11:51;24.83;;;15.70;;
9924;SDS011;5001;51.674;7.868;2023-02-15T05:14:18;24.57;;;15.60;;
9924;SDS011;5001;51.674;7.868;2023-02-15T05:16:45;24.90;;;16.37;;
9924;SDS011;5001;51.674;7.868;2023-02-15T05:19:13;24.97;;;15.17;;
9924;SDS011;5001;51.674;7.868;2023-02-15T05:21:40;23.80;;;15.27;;
9924;SDS011;5001;51.674;7.868;2023-02-15T05:24:07;21.03;;;14.60;;
9924;SDS011;5001;51.674;7.868;2023-02-15T05:26:53;20.27;;;14.00;;
9924;SDS011;5001;51.674;7.868;2023-02-15T05:29:39;21.67;;;14.30;;
9924;SDS011;5001;51.674;7.868;2023-02-15T05:32:06;21.03;;;14.17;;
9924;SDS011;5001;51.674;7.868;2023-02-15T05:34:33;22.57;;;15.10;;
9924;SDS011;5001;51.674;7.868;2023-02-15T05:37:00;20.23;;;13.20;;
9924;SDS011;5001;51.674;7.868;2023-02-15T05:39:27;21.90;;;14.80;;
9924;SDS011;5001;51.674;7.868;2023-02-15T05:41:57;20.73;;;14.43;;
9924;SDS011;5001;51.674;7.868;2023-02-15T05:44:26;22.47;;;14.50;;
9924;SDS011;5001;51.674;7.868;2023-02-15T05:46:52;23.10;;;14.33;;
9924;SDS011;5001;51.674;7.868;2023-02-15T05:49:19;19.87;;;14.30;;
9924;SDS011;5001;51.674;7.868;2023-02-15T05:51:46;21.10;;;14.13;;
9924;SDS011;5001;51.674;7.868;2023-02-15T05:54:13;21.90;;;14.70;;
9924;SDS011;5001;51.674;7.868;2023-02-15T05:56:40;23.23;;;14.80;;
9924;SDS011;5001;51.674;7.868;2023-02-15T05:59:07;20.83;;;14.73;;
9924;SDS011;5001;51.674;7.868;2023-02-15T06:01:35;21.93;;;14.77;;
9924;SDS011;5001;51.674;7.868;2023-02-15T06:04:02;18.63;;;13.47;;
9924;SDS011;5001;51.674;7.868;2023-02-15T06:06:29;21.93;;;14.30;;
9924;SDS011;5001;51.674;7.868;2023-02-15T06:08:56;20.83;;;14.77;;
9924;SDS011;5001;51.674;7.868;2023-02-15T06:11:23;21.60;;;14.40;;
9924;SDS011;5001;51.674;7.868;2023-02-15T06:13:50;24.30;;;15.13;;
9924;SDS011;5001;51.674;7.868;2023-02-15T06:16:17;23.80;;;15.80;;
9924;SDS011;5001;51.674;7.868;2023-02-15T06:18:44;23.67;;;15.30;;
9924;SDS011;5001;51.674;7.868;2023-02-15T06:21:11;21.83;;;15.23;;
9924;SDS011;5001;51.674;7.868;2023-02-15T06:23:38;25.63;;;15.60;;
9924;SDS011;5001;51.674;7.868;2023-02-15T06:26:05;23.70;;;15.20;;
9924;SDS011;5001;51.674;7.868;2023-02-15T06:28:32;23.03;;;15.43;;
9924;SDS011;5001;51.674;7.868;2023-02-15T06:30:59;22.10;;;15.30;;
9924;SDS011;5001;51.674;7.868;2023-02-15T06:33:26;20.73;;;14.90;;
9924;SDS011;5001;51.674;7.868;2023-02-15T06:35:53;23.23;;;14.60;;
9924;SDS011;5001;51.674;7.868;2023-02-15T06:38:20;21.07;;;15.57;;
9924;SDS011;5001;51.674;7.868;2023-02-15T06:40:47;26.73;;;16.13;;
9924;SDS011;5001;51.674;7.868;2023-02-15T06:43:14;30.40;;;17.90;;
9924;SDS011;5001;51.674;7.868;2023-02-15T06:45:41;24.17;;;15.23;;
9924;SDS011;5001;51.674;7.868;2023-02-15T06:48:08;25.00;;;16.07;;
9924;SDS011;5001;51.674;7.868;2023-02-15T06:50:37;24.20;;;15.70;;
9924;SDS011;5001;51.674;7.868;2023-02-15T06:53:04;21.67;;;16.37;;
9924;SDS011;5001;51.674;7.868;2023-02-15T06:55:31;21.00;;;15.43;;
9924;SDS011;5001;51.674;7.868;2023-02-15T06:57:58;24.53;;;15.53;;
9924;SDS011;5001;51.674;7.868;2023-02-15T07:00:25;23.10;;;15.33;;
9924;SDS011;5001;51.674;7.868;2023-02-15T07:02:53;19.70;;;15.10;;
9924;SDS011;5001;51.674;7.868;2023-02-15T07:05:24;21.03;;;15.03;;
9924;SDS011;5001;51.674;7.868;2023-02-15T07:07:57;24.30;;;14.87;;
9924;SDS011;5001;51.674;7.868;2023-02-15T07:10:25;23.07;;;14.37;;
9924;SDS011;5001;51.674;7.868;2023-02-15T07:12:53;23.33;;;14.47;;
9924;SDS011;5001;51.674;7.868;2023-02-15T07:15:20;23.87;;;14.53;;
9924;SDS011;5001;51.674;7.868;2023-02-15T07:17:47;24.87;;;14.43;;
9924;SDS011;5001;51.674;7.868;2023-02-15T07:20:17;24.50;;;15.43;;
9924;SDS011;5001;51.674;7.868;2023-02-15T07:22:49;22.80;;;15.70;;
9924;SDS011;5001;51.674;7.868;2023-02-15T07:25:16;22.87;;;14.67;;
9924;SDS011;5001;51.674;7.868;2023-02-15T07:27:44;21.90;;;14.03;;
9924;SDS011;5001;51.674;7.868;2023-02-15T07:30:12;31.10;;;15.07;;
9924;SDS011;5001;51.674;7.868;2023-02-15T07:32:41;22.37;;;15.47;;
9924;SDS011;5001;51.674;7.868;2023-02-15T07:35:30;30.00;;;19.17;;
9924;SDS011;5001;51.674;7.868;2023-02-15T07:37:57;36.93;;;21.03;;
9924;SDS011;5001;51.674;7.868;2023-02-15T07:40:24;28.73;;;18.17;;
9924;SDS011;5001;51.674;7.868;2023-02-15T07:42:51;21.77;;;14.87;;
9924;SDS011;5001;51.674;7.868;2023-02-15T07:45:21;22.67;;;13.83;;
9924;SDS011;5001;51.674;7.868;2023-02-15T07:47:48;23.73;;;14.43;;
9924;SDS011;5001;51.674;7.868;2023-02-15T07:50:15;21.13;;;14.43;;
9924;SDS011;5001;51.674;7.868;2023-02-15T07:52:42;25.53;;;16.07;;
9924;SDS011;5001;51.674;7.868;2023-02-15T07:55:09;23.23;;;16.23;;
9924;SDS011;5001;51.674;7.868;2023-02-15T07:57:45;19.33;;;14.27;;
9924;SDS011;5001;51.674;7.868;2023-02-15T08:00:14;21.67;;;15.17;;
9924;SDS011;5001;51.674;7.868;2023-02-15T08:02:49;20.43;;;14.63;;
9924;SDS011;5001;51.674;7.868;2023-02-15T08:05:36;22.50;;;15.83;;
9924;SDS011;5001;51.674;7.868;2023-02-15T08:08:03;19.73;;;14.93;;
9924;SDS011;5001;51.674;7.868;2023-02-15T08:10:30;21.30;;;14.60;;
9924;SDS011;5001;51.674;7.868;2023-02-15T08:13:16;24.43;;;14.20;;
9924;SDS011;5001;51.674;7.868;2023-02-15T08:15:49;21.23;;;15.70;;
9924;SDS011;5001;51.674;7.868;2023-02-15T08:18:17;20.40;;;15.00;;
9924;SDS011;5001;51.674;7.868;2023-02-15T08:20:48;23.03;;;15.97;;
9924;SDS011;5001;51.674;7.868;2023-02-15T08:23:16;23.80;;;16.53;;
9924;SDS011;5001;51.674;7.868;2023-02-15T08:25:43;21.67;;;15.00;;
9924;SDS011;5001;51.674;7.868;2023-02-15T08:28:10;21.00;;;15.00;;
9924;SDS011;5001;51.674;7.868;2023-02-15T08:30:37;27.27;;;16.37;;
9924;SDS011;5001;51.674;7.868;2023-02-15T08:33:04;21.87;;;15.37;;
9924;SDS011;5001;51.674;7.868;2023-02-15T08:35:31;20.67;;;14.47;;
9924;SDS011;5001;51.674;7.868;2023-02-15T08:37:58;22.97;;;14.93;;
9924;SDS011;5001;51.674;7.868;2023-02-15T08:40:25;22.93;;;15.20;;
9924;SDS011;5001;51.674;7.868;2023-02-15T08:42:53;25.83;;;14.93;;
9924;SDS011;5001;51.674;7.868;2023-02-15T08:45:20;19.10;;;14.20;;
9924;SDS011;5001;51.674;7.868;2023-02-15T08:47:47;26.77;;;15.43;;
9924;SDS011;5001;51.674;7.868;2023-02-15T08:50:14;24.60;;;15.57;;
9924;SDS011;5001;51.674;7.868;2023-02-15T08:52:41;24.13;;;14.67;;
9924;SDS011;5001;51.674;7.868;2023-02-15T08:55:08;24.13;;;14.40;;
9924;SDS011;5001;51.674;7.868;2023-02-15T08:57:34;23.03;;;14.37;;
9924;SDS011;5001;51.674;7.868;2023-02-15T09:00:02;22.23;;;14.87;;
9924;SDS011;5001;51.674;7.868;2023-02-15T09:02:30;20.63;;;13.67;;
9924;SDS011;5001;51.674;7.868;2023-02-15T09:04:58;21.33;;;14.33;;
9924;SDS011;5001;51.674;7.868;2023-02-15T09:07:24;21.90;;;14.17;;
9924;SDS011;5001;51.674;7.868;2023-02-15T09:09:51;20.57;;;13.83;;
9924;SDS011;5001;51.674;7.868;2023-02-15T09:12:19;19.33;;;13.40;;
9924;SDS011;5001;51.674;7.868;2023-02-15T09:14:46;20.67;;;13.93;;
9924;SDS011;5001;51.674;7.868;2023-02-15T09:17:13;20.77;;;14.50;;
9924;SDS011;5001;51.674;7.868;2023-02-15T09:19:41;19.20;;;14.33;;
9924;SDS011;5001;51.674;7.868;2023-02-15T09:22:08;19.20;;;12.33;;
9924;SDS011;5001;51.674;7.868;2023-02-15T09:24:35;18.40;;;11.77;;
9924;SDS011;5001;51.674;7.868;2023-02-15T09:27:02;18.33;;;12.43;;
9924;SDS011;5001;51.674;7.868;2023-02-15T09:29:29;19.23;;;12.77;;
9924;SDS011;5001;51.674;7.868;2023-02-15T09:31:56;18.58;;;12.90;;
9924;SDS011;5001;51.674;7.868;2023-02-15T09:34:25;16.35;;;11.55;;
9924;SDS011;5001;51.674;7.868;2023-02-15T09:36:52;17.73;;;13.10;;
9924;SDS011;5001;51.674;7.868;2023-02-15T09:39:20;17.52;;;12.65;;
9924;SDS011;5001;51.674;7.868;2023-02-15T10:06:44;21.45;;;13.73;;
9924;SDS011;5001;51.674;7.868;2023-02-15T10:12:12;15.38;;;11.65;;
9924;SDS011;5001;51.674;7.868;2023-02-15T10:18:07;16.65;;;11.57;;
9924;SDS011;5001;51.674;7.868;2023-02-15T10:20:59;17.67;;;12.40;;
9924;SDS011;5001;51.674;7.868;2023-02-15T10:26:20;19.05;;;12.05;;
9924;SDS011;5001;51.674;7.868;2023-02-15T10:28:50;16.35;;;12.07;;
9924;SDS011;5001;51.674;7.868;2023-02-15T10:31:27;17.67;;;12.10;;
9924;SDS011;5001;51.674;7.868;2023-02-15T10:34:15;16.45;;;12.85;;
9924;SDS011;5001;51.674;7.868;2023-02-15T10:36:48;16.70;;;12.88;;
9924;SDS011;5001;51.674;7.868;2023-02-15T10:45:16;16.38;;;13.45;;
9924;SDS011;5001;51.674;7.868;2023-02-15T10:58:39;18.17;;;14.07;;
9924;SDS011;5001;51.674;7.868;2023-02-15T11:04:08;15.68;;;12.52;;
9924;SDS011;5001;51.674;7.868;2023-02-15T11:06:52;16.45;;;12.70;;
9924;SDS011;5001;51.674;7.868;2023-02-15T11:09:24;15.23;;;12.80;;
9924;SDS011;5001;51.674;7.868;2023-02-15T11:11:58;16.35;;;12.48;;
9924;SDS011;5001;51.674;7.868;2023-02-15T11:17:17;19.10;;;13.43;;
9924;SDS011;5001;51.674;7.868;2023-02-15T11:22:43;15.23;;;12.77;;
9924;SDS011;5001;51.674;7.868;2023-02-15T11:25:19;18.00;;;13.27;;
9924;SDS011;5001;51.674;7.868;2023-02-15T11:27:57;17.10;;;13.30;;
9924;SDS011;5001;51.674;7.868;2023-02-15T11:30:28;15.48;;;13.27;;
9924;SDS011;5001;51.674;7.868;2023-02-15T11:33:04;21.17;;;13.73;;
9924;SDS011;5001;51.674;7.868;2023-02-15T11:35:37;18.20;;;13.52;;
9924;SDS011;5001;51.674;7.868;2023-02-15T11:38:21;17.63;;;12.98;;
9924;SDS011;5001;51.674;7.868;2023-02-15T11:40:56;19.05;;;12.70;;
9924;SDS011;5001;51.674;7.868;2023-02-15T11:46:04;16.25;;;13.07;;
9924;SDS011;5001;51.674;7.868;2023-02-15T11:48:36;16.65;;;13.02;;
9924;SDS011;5001;51.674;7.868;2023-02-15T11:51:03;26.83;;;14.30;;
9924;SDS011;5001;51.674;7.868;2023-02-15T11:53:32;15.45;;;12.93;;
9924;SDS011;5001;51.674;7.868;2023-02-15T11:56:04;18.50;;;12.75;;
9924;SDS011;5001;51.674;7.868;2023-02-15T11:58:52;15.98;;;12.05;;
9924;SDS011;5001;51.674;7.868;2023-02-15T12:04:30;17.88;;;13.45;;
9924;SDS011;5001;51.674;7.868;2023-02-15T12:09:42;15.55;;;12.63;;
9924;SDS011;5001;51.674;7.868;2023-02-15T12:12:27;16.58;;;12.70;;
9924;SDS011;5001;51.674;7.868;2023-02-15T12:14:59;18.75;;;12.85;;
9924;SDS011;5001;51.674;7.868;2023-02-15T12:17:28;17.13;;;12.93;;
9924;SDS011;5001;51.674;7.868;2023-02-15T12:20:03;20.95;;;12.57;;
9924;SDS011;5001;51.674;7.868;2023-02-15T12:22:45;17.92;;;13.90;;
9924;SDS011;5001;51.674;7.868;2023-02-15T12:25:22;16.75;;;12.88;;
9924;SDS011;5001;51.674;7.868;2023-02-15T12:27:59;18.02;;;13.13;;
9924;SDS011;5001;51.674;7.868;2023-02-15T12:33:02;16.77;;;13.07;;
9924;SDS011;5001;51.674;7.868;2023-02-15T12:35:32;18.02;;;13.35;;
9924;SDS011;5001;51.674;7.868;2023-02-15T12:40:38;19.08;;;13.98;;
9924;SDS011;5001;51.674;7.868;2023-02-15T12:43:24;17.50;;;12.90;;
9924;SDS011;5001;51.674;7.868;2023-02-15T12:51:52;20.00;;;13.88;;
9924;SDS011;5001;51.674;7.868;2023-02-15T12:57:28;18.73;;;12.15;;
9924;SDS011;5001;51.674;7.868;2023-02-15T12:59:58;18.95;;;12.93;;
9924;SDS011;5001;51.674;7.868;2023-02-15T13:07:43;23.20;;;12.90;;
9924;SDS011;5001;51.674;7.868;2023-02-15T13:10:22;20.20;;;12.88;;
9924;SDS011;5001;51.674;7.868;2023-02-15T13:12:53;19.52;;;12.15;;
9924;SDS011;5001;51.674;7.868;2023-02-15T13:15:28;18.45;;;11.63;;
9924;SDS011;5001;51.674;7.868;2023-02-15T13:18:07;18.38;;;12.02;;
9924;SDS011;5001;51.674;7.868;2023-02-15T13:20:41;19.60;;;12.20;;
9924;SDS011;5001;51.674;7.868;2023-02-15T13:23:22;17.70;;;11.40;;
9924;SDS011;5001;51.674;7.868;2023-02-15T13:25:57;18.30;;;12.18;;
9924;SDS011;5001;51.674;7.868;2023-02-15T13:28:28;17.83;;;11.48;;
9924;SDS011;5001;51.674;7.868;2023-02-15T13:31:04;21.75;;;11.85;;
9924;SDS011;5001;51.674;7.868;2023-02-15T13:33:39;18.60;;;11.77;;
9924;SDS011;5001;51.674;7.868;2023-02-15T13:36:34;18.60;;;11.45;;
9924;SDS011;5001;51.674;7.868;2023-02-15T13:42:20;15.40;;;10.65;;
9924;SDS011;5001;51.674;7.868;2023-02-15T13:55:54;18.42;;;11.20;;
9924;SDS011;5001;51.674;7.868;2023-02-15T14:03:47;16.30;;;10.70;;
9924;SDS011;5001;51.674;7.868;2023-02-15T14:19:48;17.42;;;10.75;;
9924;SDS011;5001;51.674;7.868;2023-02-15T14:22:37;17.40;;;10.90;;
9924;SDS011;5001;51.674;7.868;2023-02-15T14:28:07;16.63;;;10.95;;
9924;SDS011;5001;51.674;7.868;2023-02-15T14:30:45;18.63;;;11.27;;
9924;SDS011;5001;51.674;7.868;2023-02-15T14:33:32;23.42;;;11.90;;
9924;SDS011;5001;51.674;7.868;2023-02-15T14:36:02;17.15;;;10.77;;
9924;SDS011;5001;51.674;7.868;2023-02-15T14:49:14;20.13;;;10.93;;
9924;SDS011;5001;51.674;7.868;2023-02-15T14:56:44;17.45;;;10.23;;
9924;SDS011;5001;51.674;7.868;2023-02-15T15:02:03;19.13;;;11.75;;
9924;SDS011;5001;51.674;7.868;2023-02-15T15:07:22;16.35;;;10.55;;
9924;SDS011;5001;51.674;7.868;2023-02-15T15:10:05;18.42;;;11.52;;
9924;SDS011;5001;51.674;7.868;2023-02-15T15:18:05;17.45;;;10.70;;
9924;SDS011;5001;51.674;7.868;2023-02-15T15:37:41;24.58;;;13.55;;
9924;SDS011;5001;51.674;7.868;2023-02-15T15:40:54;21.13;;;13.38;;
9924;SDS011;5001;51.674;7.868;2023-02-15T15:46:24;21.77;;;13.00;;
9924;SDS011;5001;51.674;7.868;2023-02-15T15:49:17;23.77;;;13.57;;
9924;SDS011;5001;51.674;7.868;2023-02-15T15:51:47;19.17;;;13.13;;
9924;SDS011;5001;51.674;7.868;2023-02-15T15:54:16;20.97;;;13.83;;
9924;SDS011;5001;51.674;7.868;2023-02-15T15:56:52;25.27;;;15.47;;
9924;SDS011;5001;51.674;7.868;2023-02-15T15:59:29;23.00;;;14.63;;
9924;SDS011;5001;51.674;7.868;2023-02-15T16:02:05;21.53;;;14.50;;
9924;SDS011;5001;51.674;7.868;2023-02-15T16:04:34;23.50;;;14.03;;
9924;SDS011;5001;51.674;7.868;2023-02-15T16:09:57;27.17;;;15.93;;
9924;SDS011;5001;51.674;7.868;2023-02-15T16:12:30;27.43;;;16.80;;
9924;SDS011;5001;51.674;7.868;2023-02-15T16:15:01;24.10;;;16.40;;
9924;SDS011;5001;51.674;7.868;2023-02-15T16:17:31;21.73;;;15.10;;
9924;SDS011;5001;51.674;7.868;2023-02-15T16:20:06;22.00;;;15.53;;
9924;SDS011;5001;51.674;7.868;2023-02-15T16:22:40;23.37;;;15.23;;
9924;SDS011;5001;51.674;7.868;2023-02-15T16:28:13;23.87;;;14.90;;
9924;SDS011;5001;51.674;7.868;2023-02-15T16:30:40;23.50;;;14.67;;
9924;SDS011;5001;51.674;7.868;2023-02-15T16:33:10;25.33;;;15.40;;
9924;SDS011;5001;51.674;7.868;2023-02-15T16:35:54;20.80;;;14.20;;
9924;SDS011;5001;51.674;7.868;2023-02-15T16:41:20;19.60;;;14.70;;
9924;SDS011;5001;51.674;7.868;2023-02-15T16:43:54;21.43;;;16.07;;
9924;SDS011;5001;51.674;7.868;2023-02-15T16:49:23;33.20;;;20.07;;
9924;SDS011;5001;51.674;7.868;2023-02-15T16:51:57;48.47;;;30.00;;
9924;SDS011;5001;51.674;7.868;2023-02-15T16:54:27;28.70;;;20.53;;
9924;SDS011;5001;51.674;7.868;2023-02-15T16:56:57;23.00;;;16.17;;
9924;SDS011;5001;51.674;7.868;2023-02-15T17:02:20;21.90;;;15.63;;
9924;SDS011;5001;51.674;7.868;2023-02-15T17:07:48;26.30;;;18.43;;
9924;SDS011;5001;51.674;7.868;2023-02-15T17:10:32;25.20;;;15.83;;
9924;SDS011;5001;51.674;7.868;2023-02-15T17:13:04;23.33;;;15.37;;
9924;SDS011;5001;51.674;7.868;2023-02-15T17:15:38;26.03;;;16.93;;
9924;SDS011;5001;51.674;7.868;2023-02-15T17:18:18;26.20;;;16.07;;
9924;SDS011;5001;51.674;7.868;2023-02-15T17:20:48;26.27;;;16.63;;
9924;SDS011;5001;51.674;7.868;2023-02-15T17:23:21;25.43;;;18.50;;
9924;SDS011;5001;51.674;7.868;2023-02-15T17:25:56;36.43;;;21.83;;
9924;SDS011;5001;51.674;7.868;2023-02-15T17:28:25;28.03;;;18.10;;
9924;SDS011;5001;51.674;7.868;2023-02-15T17:30:57;26.27;;;18.47;;
9924;SDS011;5001;51.674;7.868;2023-02-15T17:33:26;26.97;;;16.87;;
9924;SDS011;5001;51.674;7.868;2023-02-15T17:36:04;29.17;;;17.47;;
9924;SDS011;5001;51.674;7.868;2023-02-15T17:38:36;28.83;;;18.83;;
9924;SDS011;5001;51.674;7.868;2023-02-15T17:41:05;27.13;;;17.87;;
9924;SDS011;5001;51.674;7.868;2023-02-15T17:43:32;26.57;;;20.17;;
9924;SDS011;5001;51.674;7.868;2023-02-15T17:45:59;30.63;;;18.67;;
9924;SDS011;5001;51.674;7.868;2023-02-15T17:48:36;29.50;;;18.17;;
9924;SDS011;5001;51.674;7.868;2023-02-15T17:51:06;28.70;;;17.30;;
9924;SDS011;5001;51.674;7.868;2023-02-15T17:53:37;30.80;;;18.77;;
9924;SDS011;5001;51.674;7.868;2023-02-15T17:56:05;27.50;;;18.30;;
9924;SDS011;5001;51.674;7.868;2023-02-15T17:58:36;30.57;;;19.87;;
9924;SDS011;5001;51.674;7.868;2023-02-15T18:01:11;32.30;;;18.87;;
9924;SDS011;5001;51.674;7.868;2023-02-15T18:04:02;27.53;;;18.37;;
9924;SDS011;5001;51.674;7.868;2023-02-15T18:06:49;28.53;;;18.37;;
9924;SDS011;5001;51.674;7.868;2023-02-15T18:09:34;30.30;;;18.77;;
9924;SDS011;5001;51.674;7.868;2023-02-15T18:14:49;36.13;;;24.17;;
9924;SDS011;5001;51.674;7.868;2023-02-15T18:17:17;35.70;;;21.77;;
9924;SDS011;5001;51.674;7.868;2023-02-15T18:19:44;34.90;;;22.00;;
9924;SDS011;5001;51.674;7.868;2023-02-15T18:22:16;39.50;;;24.87;;
9924;SDS011;5001;51.674;7.868;2023-02-15T18:24:45;27.93;;;20.10;;
9924;SDS011;5001;51.674;7.868;2023-02-15T18:27:13;32.63;;;22.03;;
9924;SDS011;5001;51.674;7.868;2023-02-15T18:29:41;34.33;;;19.87;;
9924;SDS011;5001;51.674;7.868;2023-02-15T18:32:15;24.90;;;18.33;;
9924;SDS011;5001;51.674;7.868;2023-02-15T18:34:50;38.87;;;22.40;;
9924;SDS011;5001;51.674;7.868;2023-02-15T18:37:21;37.03;;;23.63;;
9924;SDS011;5001;51.674;7.868;2023-02-15T18:39:56;30.07;;;21.10;;
9924;SDS011;5001;51.674;7.868;2023-02-15T18:44:55;31.67;;;20.47;;
9924;SDS011;5001;51.674;7.868;2023-02-15T18:47:24;31.87;;;19.70;;
9924;SDS011;5001;51.674;7.868;2023-02-15T18:49:52;31.47;;;20.53;;
9924;SDS011;5001;51.674;7.868;2023-02-15T18:52:20;37.23;;;21.07;;
9924;SDS011;5001;51.674;7.868;2023-02-15T18:54:52;33.77;;;21.13;;
9924;SDS011;5001;51.674;7.868;2023-02-15T18:57:23;35.70;;;21.63;;